Time;durP1;ratioP1;P1;durP2;ratioP2;P2;SDS_P1;SDS_P2;PMS_P1;PMS_P2;Temp;Humidity;BMP_temperature;BMP_pressure;BME280_temperature;BME280_humidity;BME280_pressure;Samples;Min_cycle;Max_cycle;Signal;HPM_P1;HPM_P2
2022/01/26 00:06:35;;;;;;;19.70;18.00;;;;;;;22.29;16.87;95794.34;7275702;19;137270;-58
2022/01/26 00:09:03;;;;;;;18.70;17.10;;;;;;;22.32;17.32;95799.09;7282397;19;139453;-58
2022/01/26 00:11:31;;;;;;;18.53;16.93;;;;;;;22.33;16.85;95800.69;7288054;19;137283;-56
2022/01/26 00:13:58;;;;;;;18.77;17.07;;;;;;;22.33;16.69;95794.56;7287599;19;138830;-58
2022/01/26 00:18:52;;;;;;;18.00;16.50;;;;;;;22.33;17.17;95799.91;7265697;19;138861;-53
2022/01/26 00:21:28;;;;;;;17.57;16.07;;;;;;;22.32;16.95;95793.78;7289584;19;137264;-57
2022/01/26 00:29:08;;;;;;;14.97;13.77;;;;;;;22.33;16.93;95784.72;7268165;19;138957;-58
2022/01/26 00:39:52;;;;;;;16.07;14.77;;;;;;;22.33;16.82;95789.25;7269323;19;138468;-58
2022/01/26 00:42:18;;;;;;;15.13;13.83;;;;;;;22.32;16.38;95777.81;7284787;19;137237;-57
2022/01/26 00:44:47;;;;;;;14.50;13.30;;;;;;;22.32;16.63;95782.34;7285113;19;138714;-57
2022/01/26 00:47:14;;;;;;;15.07;13.77;;;;;;;22.32;16.43;95791.13;7282086;19;138059;-54
2022/01/26 00:49:40;;;;;;;15.27;13.97;;;;;;;22.32;16.52;95793.00;7283238;19;137232;-58
2022/01/26 00:52:12;;;;;;;14.70;13.50;;;;;;;22.30;17.14;95792.47;7273943;19;138629;-58
2022/01/26 00:54:37;;;;;;;14.50;13.27;;;;;;;22.30;16.81;95790.59;7283938;19;137366;-57
2022/01/26 00:57:03;;;;;;;14.20;13.10;;;;;;;22.32;16.72;95782.34;7287422;19;137101;-58
2022/01/26 00:59:29;;;;;;;13.87;12.67;;;;;;;22.29;17.13;95778.38;7280299;19;139925;-57
2022/01/26 01:01:55;;;;;;;13.43;12.33;;;;;;;22.30;17.22;95782.63;7274322;19;138276;-58
2022/01/26 01:04:21;;;;;;;15.20;13.90;;;;;;;22.30;16.70;95789.81;7285824;19;137814;-58
2022/01/26 01:06:53;;;;;;;14.63;13.43;;;;;;;22.28;16.78;95776.78;7288921;19;138328;-59
2022/01/26 01:09:21;;;;;;;14.97;13.77;;;;;;;22.30;16.87;95779.16;7276989;19;137938;-59
2022/01/26 01:11:46;;;;;;;16.37;14.97;;;;;;;22.26;17.08;95768.28;7286163;19;137445;-57
2022/01/26 01:14:12;;;;;;;16.43;15.03;;;;;;;22.25;16.92;95777.34;7272299;19;138888;-56
2022/01/26 01:16:38;;;;;;;17.30;15.90;;;;;;;22.24;16.82;95778.44;7285352;19;137662;-56
2022/01/26 01:24:47;;;;;;;18.23;16.73;;;;;;;22.24;16.93;95778.44;7270112;19;137249;-58
2022/01/26 01:27:27;;;;;;;19.73;18.03;;;;;;;22.25;16.79;95772.03;7286441;19;137361;-57
2022/01/26 01:30:26;;;;;;;20.70;18.90;;;;;;;22.27;17.25;95771.75;7282998;19;137739;-56
2022/01/26 01:33:09;;;;;;;20.23;18.47;;;;;;;22.27;16.63;95779.75;7283281;19;137822;-59
2022/01/26 01:35:38;;;;;;;20.20;18.47;;;;;;;22.28;17.14;95766.16;7273704;19;139998;-58
2022/01/26 01:38:14;;;;;;;21.97;19.87;;;;;;;22.26;16.50;95764.84;7278316;19;137660;-58
2022/01/26 01:40:43;;;;;;;22.43;20.40;;;;;;;22.25;16.48;95764.06;7285225;19;136795;-58
2022/01/26 01:43:10;;;;;;;21.80;19.90;;;;;;;22.26;17.03;95760.31;7286686;19;137904;-58
2022/01/26 01:45:45;;;;;;;23.60;21.40;;;;;;;22.25;17.04;95769.38;7272306;19;137685;-57
2022/01/26 01:48:13;;;;;;;22.63;20.60;;;;;;;22.24;16.54;95765.13;7277874;19;138061;-58
2022/01/26 01:50:41;;;;;;;24.07;21.97;;;;;;;22.25;16.61;95758.72;7286806;19;137028;-58
2022/01/26 01:53:11;;;;;;;23.87;21.80;;;;;;;22.23;16.51;95747.56;7285532;19;137537;-58
2022/01/26 01:55:41;;;;;;;24.90;22.70;;;;;;;22.24;16.41;95749.16;7289773;19;138385;-56
2022/01/26 01:58:07;;;;;;;25.93;23.60;;;;;;;22.25;16.73;95749.94;7272240;19;137631;-58
2022/01/26 02:00:33;;;;;;;25.90;23.60;;;;;;;22.24;16.99;95740.38;7291505;19;136937;-57
2022/01/26 02:03:00;;;;;;;24.70;22.60;;;;;;;22.16;17.07;95736.44;7292090;19;137734;-57
2022/01/26 02:05:26;;;;;;;24.80;22.30;;;;;;;22.25;16.78;95744.63;7291336;19;138443;-57
2022/01/26 02:07:52;;;;;;;24.83;22.63;;;;;;;22.23;16.61;95739.59;7273981;19;139047;-56
2022/01/26 02:10:18;;;;;;;27.03;24.13;;;;;;;22.24;16.55;95743.84;7288462;19;137039;-58
2022/01/26 02:12:48;;;;;;;25.93;23.73;;;;;;;22.23;16.90;95744.13;7293384;19;138493;-58
2022/01/26 02:15:20;;;;;;;25.20;22.90;;;;;;;22.23;16.80;95734.25;7291315;19;138379;-59
2022/01/26 02:55:41;;;;;;;26.80;24.40;;;;;;;22.19;16.45;95728.72;7289498;19;137955;-58
2022/01/26 02:58:36;;;;;;;26.60;24.30;;;;;;;22.21;16.40;95717.78;7285147;19;140108;-57
2022/01/26 03:03:38;;;;;;;25.17;22.90;;;;;;;22.24;16.59;95716.44;7278335;19;138308;-59
2022/01/26 03:06:08;;;;;;;24.63;22.53;;;;;;;22.23;16.53;95720.16;7289894;19;138784;-55
2022/01/26 03:08:43;;;;;;;24.60;22.33;;;;;;;22.21;16.91;95723.91;7280014;19;140650;-56
2022/01/26 03:11:12;;;;;;;24.77;22.57;;;;;;;22.23;16.53;95714.84;7291784;19;137766;-57
2022/01/26 03:13:44;;;;;;;25.27;22.87;;;;;;;22.23;17.04;95720.97;7277620;19;137270;-58
2022/01/26 03:16:20;;;;;;;25.03;22.73;;;;;;;22.22;16.57;95708.72;7288390;19;139255;-58
2022/01/26 03:19:01;;;;;;;24.27;21.90;;;;;;;22.21;16.38;95723.13;7281028;19;140322;-58
2022/01/26 03:21:43;;;;;;;24.13;22.03;;;;;;;22.20;17.27;95714.34;7291178;19;137956;-58
2022/01/26 03:34:38;;;;;;;23.37;21.33;;;;;;;22.23;16.50;95707.66;7288775;19;137518;-57
2022/01/26 03:37:07;;;;;;;22.53;20.53;;;;;;;22.22;16.91;95703.41;7274294;19;137408;-55
2022/01/26 03:39:41;;;;;;;22.53;20.60;;;;;;;22.23;17.19;95704.19;7281170;19;138470;-58
2022/01/26 03:42:13;;;;;;;21.67;19.87;;;;;;;22.23;16.49;95705.00;7290130;19;139150;-58
2022/01/26 03:44:38;;;;;;;22.80;20.80;;;;;;;22.17;16.63;95700.78;7284063;19;137125;-57
2022/01/26 03:47:04;;;;;;;22.33;20.43;;;;;;;22.22;16.50;95714.06;7276092;19;137544;-54
2022/01/26 03:49:30;;;;;;;22.20;20.20;;;;;;;22.19;16.86;95694.13;7278784;19;139672;-57
2022/01/26 03:51:55;;;;;;;21.87;19.77;;;;;;;22.17;17.10;95692.78;7286783;19;137070;-56
2022/01/26 03:54:21;;;;;;;21.70;19.80;;;;;;;22.23;16.90;95704.19;7288610;19;137279;-57
2022/01/26 03:56:47;;;;;;;20.17;18.47;;;;;;;22.24;17.30;95697.78;7290029;19;137956;-56
2022/01/26 03:59:13;;;;;;;22.70;20.80;;;;;;;22.22;16.97;95703.41;7264871;19;139748;-57
2022/01/26 04:01:39;;;;;;;22.80;20.77;;;;;;;22.23;17.05;95696.22;7288919;19;137409;-57
2022/01/26 04:04:05;;;;;;;21.30;19.53;;;;;;;22.21;16.91;95691.97;7288545;19;138208;-55
2022/01/26 04:06:33;;;;;;;22.27;20.17;;;;;;;22.03;16.86;95687.34;7288865;19;136989;-56
2022/01/26 04:08:59;;;;;;;23.87;21.67;;;;;;;21.93;17.61;95696.22;7262404;19;137738;-56
2022/01/26 04:11:36;;;;;;;23.50;21.40;;;;;;;21.88;17.94;95688.28;7288577;19;137607;-56
2022/01/26 04:14:08;;;;;;;22.70;20.80;;;;;;;21.86;18.55;95695.78;7287958;19;137680;-55
2022/01/26 04:16:35;;;;;;;21.97;19.97;;;;;;;21.87;18.84;95702.69;7289161;19;138691;-55
2022/01/26 04:19:01;;;;;;;23.13;21.13;;;;;;;21.85;18.79;95693.41;7276451;19;138976;-55
2022/01/26 04:26:31;;;;;;;22.73;20.63;;;;;;;21.87;19.53;95681.41;7289766;19;138224;-54
2022/01/26 04:29:02;;;;;;;23.00;20.90;;;;;;;21.89;19.25;95678.44;7274449;19;140054;-54
2022/01/26 04:31:28;;;;;;;22.80;20.80;;;;;;;21.86;19.75;95671.84;7274557;19;137310;-55
2022/01/26 04:33:54;;;;;;;23.57;21.20;;;;;;;21.80;20.08;95664.97;7288549;19;138136;-55
2022/01/26 04:36:32;;;;;;;23.50;21.30;;;;;;;21.81;19.87;95679.84;7285167;19;138087;-56
2022/01/26 04:39:01;;;;;;;23.37;20.90;;;;;;;21.84;20.11;95673.97;7273802;19;139260;-55
2022/01/26 04:41:36;;;;;;;22.77;20.77;;;;;;;21.69;20.60;95674.13;7276372;19;138424;-55
2022/01/26 04:44:11;;;;;;;23.50;21.30;;;;;;;21.79;21.10;95666.03;7286242;19;137410;-56
2022/01/26 04:46:37;;;;;;;24.60;22.17;;;;;;;21.77;21.30;95668.19;7288840;19;138391;-56
2022/01/26 04:49:03;;;;;;;21.93;19.93;;;;;;;21.73;21.38;95664.50;7276224;19;140009;-55
2022/01/26 04:51:30;;;;;;;23.53;21.47;;;;;;;21.76;21.64;95669.25;7286229;19;137664;-56
2022/01/26 04:53:55;;;;;;;24.43;22.07;;;;;;;21.77;21.01;95675.38;7273807;19;136928;-55
2022/01/26 04:56:21;;;;;;;25.97;23.60;;;;;;;21.82;21.16;95672.66;7287494;19;138371;-55
2022/01/26 04:58:46;;;;;;;25.53;23.10;;;;;;;21.81;21.22;95677.19;7273575;19;137887;-55
2022/01/26 05:01:12;;;;;;;25.90;23.60;;;;;;;21.76;21.53;95663.16;7288891;19;137162;-55
2022/01/26 05:03:38;;;;;;;26.63;24.20;;;;;;;21.75;20.95;95656.25;7275023;19;137637;-56
2022/01/26 05:06:03;;;;;;;25.57;23.07;;;;;;;21.89;21.41;95670.47;7284751;19;137797;-56
2022/01/26 05:08:29;;;;;;;23.67;21.37;;;;;;;21.92;20.70;95665.38;7273464;19;137616;-56
2022/01/26 05:10:54;;;;;;;26.70;23.97;;;;;;;21.89;21.24;95671.25;7281835;19;138785;-56
2022/01/26 05:13:20;;;;;;;26.83;24.30;;;;;;;22.00;21.19;95673.78;7280329;19;137564;-56
2022/01/26 05:15:46;;;;;;;25.03;22.67;;;;;;;22.04;21.85;95675.63;7267559;19;138118;-56
2022/01/26 05:18:11;;;;;;;25.00;22.60;;;;;;;22.07;21.67;95676.97;7273418;19;137788;-55
2022/01/26 05:20:37;;;;;;;25.67;23.20;;;;;;;22.09;21.33;95677.47;7281234;19;137712;-55
2022/01/26 05:23:04;;;;;;;26.70;24.30;;;;;;;22.05;21.53;95676.44;7284427;19;139846;-56
2022/01/26 05:25:29;;;;;;;26.17;23.67;;;;;;;21.89;21.15;95673.13;7270632;19;139787;-55
2022/01/26 05:27:55;;;;;;;25.73;23.23;;;;;;;21.85;21.44;95675.56;7274576;19;138237;-57
2022/01/26 05:30:20;;;;;;;26.50;23.87;;;;;;;21.86;20.43;95663.06;7281367;19;139135;-55
2022/01/26 05:32:46;;;;;;;26.03;23.63;;;;;;;21.83;20.62;95666.25;7285784;19;138437;-54
2022/01/26 05:35:12;;;;;;;26.57;24.23;;;;;;;21.81;20.52;95661.22;7286615;19;139149;-55
2022/01/26 05:37:39;;;;;;;25.73;23.43;;;;;;;21.79;20.77;95655.41;7269000;19;138996;-55
2022/01/26 05:40:06;;;;;;;26.80;24.40;;;;;;;21.84;20.28;95671.31;7282984;19;138587;-54
2022/01/26 05:42:34;;;;;;;26.27;23.87;;;;;;;21.84;20.54;95660.69;7286331;19;137071;-54
2022/01/26 05:45:03;;;;;;;26.47;24.07;;;;;;;21.85;20.52;95662.25;7288652;19;137584;-55
2022/01/26 05:47:31;;;;;;;25.77;23.47;;;;;;;21.84;20.17;95660.69;7278384;19;139042;-55
2022/01/26 05:49:57;;;;;;;25.90;23.57;;;;;;;21.84;19.96;95668.66;7283035;19;137620;-56
2022/01/26 05:52:23;;;;;;;27.00;24.30;;;;;;;21.83;20.80;95659.06;7289824;19;137015;-57
2022/01/26 05:54:48;;;;;;;25.80;23.50;;;;;;;21.85;20.17;95648.16;7287983;19;137581;-56
2022/01/26 05:57:14;;;;;;;26.40;24.10;;;;;;;22.04;19.54;95662.31;7285649;19;140026;-55
2022/01/26 05:59:39;;;;;;;27.40;24.90;;;;;;;22.09;19.48;95664.94;7273538;19;139814;-56
2022/01/26 06:02:05;;;;;;;30.10;27.27;;;;;;;22.11;19.70;95662.78;7290106;19;137975;-57
2022/01/26 06:04:31;;;;;;;31.57;28.67;;;;;;;21.91;19.34;95629.19;7288084;19;137417;-56
2022/01/26 06:06:57;;;;;;;32.80;29.70;;;;;;;22.14;19.36;95669.41;7289400;19;137766;-56
2022/01/26 06:09:23;;;;;;;33.00;29.90;;;;;;;22.16;19.50;95665.38;7280366;19;138104;-58
2022/01/26 06:11:48;;;;;;;33.43;30.33;;;;;;;22.16;19.20;95673.38;7276416;19;137228;-56
2022/01/26 06:14:14;;;;;;;32.67;29.70;;;;;;;22.15;19.38;95665.69;7288930;19;137796;-57
2022/01/26 06:16:39;;;;;;;33.73;30.73;;;;;;;22.16;19.56;95664.59;7288991;19;138290;-57
2022/01/26 06:19:05;;;;;;;31.20;28.20;;;;;;;22.18;19.51;95665.13;7280059;19;138657;-57
2022/01/26 06:21:30;;;;;;;30.80;27.90;;;;;;;22.16;19.40;95660.06;7276291;19;137984;-56
2022/01/26 06:23:57;;;;;;;31.00;28.30;;;;;;;22.16;19.42;95659.28;7288466;19;137425;-57
2022/01/26 06:26:22;;;;;;;29.50;26.80;;;;;;;22.18;19.30;95665.13;7289838;19;139073;-58
2022/01/26 06:28:48;;;;;;;32.43;29.50;;;;;;;22.18;18.99;95662.47;7278962;19;137923;-56
2022/01/26 06:31:16;;;;;;;30.63;27.83;;;;;;;22.12;18.79;95653.72;7288027;19;137360;-59
2022/01/26 06:33:42;;;;;;;29.63;26.90;;;;;;;22.17;18.92;95660.84;7274632;19;137542;-57
2022/01/26 06:36:13;;;;;;;30.17;27.37;;;;;;;22.17;19.32;95658.19;7287899;19;137872;-57
2022/01/26 06:38:43;;;;;;;28.93;26.40;;;;;;;22.15;19.00;95652.38;7278601;19;138480;-57
2022/01/26 06:41:09;;;;;;;30.50;27.70;;;;;;;22.17;18.61;95656.34;7289717;19;137884;-56
2022/01/26 06:43:44;;;;;;;29.77;27.13;;;;;;;22.18;18.47;95651.81;7276072;19;139188;-55
2022/01/26 06:46:10;;;;;;;28.50;26.00;;;;;;;22.18;18.85;95665.91;7284698;19;138869;-55
2022/01/26 06:51:04;;;;;;;27.80;25.30;;;;;;;22.19;18.94;95662.19;7287338;19;137892;-56
2022/01/26 06:53:30;;;;;;;28.20;25.70;;;;;;;22.17;18.51;95652.88;7288029;19;137594;-57
2022/01/26 06:55:56;;;;;;;27.80;25.10;;;;;;;22.22;19.12;95666.13;7274161;19;137973;-58
2022/01/26 06:58:23;;;;;;;28.10;25.53;;;;;;;22.16;18.81;95656.63;7278726;19;138276;-57
2022/01/26 07:00:48;;;;;;;27.57;24.87;;;;;;;22.23;18.49;95662.41;7287413;19;137029;-57
2022/01/26 07:03:14;;;;;;;28.90;26.30;;;;;;;22.24;18.38;95668.50;7288786;19;137390;-56
2022/01/26 07:05:40;;;;;;;27.00;24.60;;;;;;;22.25;18.79;95665.56;7272038;19;137616;-58
2022/01/26 07:08:06;;;;;;;27.60;25.20;;;;;;;22.27;19.01;95665.28;7281406;19;138041;-54
2022/01/26 07:10:32;;;;;;;25.70;23.40;;;;;;;22.27;18.41;95662.63;7285573;19;137442;-55
2022/01/26 07:12:58;;;;;;;25.77;23.47;;;;;;;22.29;18.75;95655.13;7287511;19;137048;-54
2022/01/26 07:23:40;;;;;;;24.20;22.00;;;;;;;22.31;18.56;95645.00;7287977;19;137933;-57
2022/01/26 07:26:05;;;;;;;22.73;20.70;;;;;;;22.30;18.44;95652.19;7285649;19;138306;-56
2022/01/26 07:28:36;;;;;;;23.03;20.93;;;;;;;22.27;18.59;95654.63;7265209;19;137786;-57
2022/01/26 07:31:02;;;;;;;20.83;19.13;;;;;;;22.30;18.81;95646.06;7287343;19;137656;-58
2022/01/26 07:33:28;;;;;;;22.80;20.60;;;;;;;22.28;19.19;95659.66;7286962;19;137697;-56
2022/01/26 07:35:54;;;;;;;22.47;20.57;;;;;;;22.28;19.02;95656.22;7287493;19;137908;-57
2022/01/26 07:38:19;;;;;;;20.50;18.73;;;;;;;22.27;19.17;95643.97;7264593;19;139333;-57
2022/01/26 07:40:45;;;;;;;21.50;19.60;;;;;;;22.27;19.04;95650.09;7285432;19;137545;-57
2022/01/26 07:43:10;;;;;;;20.57;18.87;;;;;;;22.27;18.71;95652.75;7287226;19;137627;-55
2022/01/26 07:45:36;;;;;;;20.90;19.10;;;;;;;22.27;19.26;95654.63;7284057;19;137199;-53
2022/01/26 07:48:02;;;;;;;20.50;18.63;;;;;;;22.24;18.75;95652.53;7281434;19;137648;-56
2022/01/26 07:50:28;;;;;;;20.90;19.00;;;;;;;22.21;19.07;95656.56;7268362;19;139590;-57
2022/01/26 07:52:53;;;;;;;18.93;17.33;;;;;;;22.21;19.45;95651.25;7284293;19;138852;-56
2022/01/26 07:55:21;;;;;;;20.47;18.67;;;;;;;22.21;19.28;95640.59;7282774;19;138796;-57
2022/01/26 07:57:49;;;;;;;19.47;17.77;;;;;;;22.34;19.27;95655.88;7280161;19;138879;-59
2022/01/26 08:00:16;;;;;;;20.93;19.13;;;;;;;22.37;19.44;95649.97;7270110;19;139773;-56
2022/01/26 08:02:43;;;;;;;18.63;17.03;;;;;;;22.39;19.09;95639.84;7286679;19;139041;-55
2022/01/26 08:05:10;;;;;;;19.87;18.13;;;;;;;22.40;18.93;95646.75;7284762;19;138014;-58
2022/01/26 08:07:36;;;;;;;19.90;18.00;;;;;;;22.41;19.65;95643.00;7278030;19;137554;-55
2022/01/26 08:10:03;;;;;;;18.53;16.90;;;;;;;22.40;19.05;95644.09;7284567;19;137872;-59
2022/01/26 08:12:29;;;;;;;18.47;16.87;;;;;;;22.44;19.56;95641.63;7272680;19;137399;-56
2022/01/26 08:14:54;;;;;;;18.70;17.00;;;;;;;22.43;19.34;95650.69;7285277;19;137432;-55
2022/01/26 08:17:20;;;;;;;17.47;15.93;;;;;;;22.45;19.38;95648.53;7280835;19;137118;-54
2022/01/26 08:19:45;;;;;;;18.10;16.47;;;;;;;22.46;19.57;95650.13;7282268;19;137646;-56
2022/01/26 08:22:17;;;;;;;17.90;16.30;;;;;;;22.48;19.31;95647.97;7272599;19;140290;-56
2022/01/26 08:24:43;;;;;;;15.70;14.30;;;;;;;22.47;20.15;95654.38;7285679;19;137670;-56
2022/01/26 08:27:12;;;;;;;15.83;14.53;;;;;;;22.42;20.21;95649.13;7282757;19;137886;-55
2022/01/26 08:29:44;;;;;;;16.97;15.50;;;;;;;22.50;20.16;95645.81;7279453;19;137887;-58
2022/01/26 08:32:10;;;;;;;16.70;15.30;;;;;;;22.47;20.06;95644.50;7286147;19;137202;-56
2022/01/26 08:34:35;;;;;;;16.23;14.83;;;;;;;22.52;19.83;95655.13;7269592;19;139064;-58
2022/01/26 08:37:02;;;;;;;16.17;14.67;;;;;;;22.47;19.87;95657.81;7285029;19;137185;-57
2022/01/26 08:39:28;;;;;;;15.07;13.50;;;;;;;22.45;19.93;95657.31;7276922;19;138598;-57
2022/01/26 08:41:54;;;;;;;14.30;13.10;;;;;;;22.36;20.11;95651.06;7285062;19;137534;-56
2022/01/26 08:44:19;;;;;;;14.37;12.93;;;;;;;22.40;20.44;95662.72;7271130;19;137726;-56
2022/01/26 08:46:45;;;;;;;14.90;13.60;;;;;;;22.41;19.77;95666.16;7285386;19;137675;-56
2022/01/26 08:49:11;;;;;;;13.60;12.40;;;;;;;22.18;20.44;95627.88;7275693;19;137483;-55
2022/01/26 08:51:37;;;;;;;14.50;13.10;;;;;;;22.39;19.63;95663.00;7283736;19;138019;-57
2022/01/26 08:54:04;;;;;;;13.17;12.07;;;;;;;22.37;19.61;95660.63;7285558;19;137327;-57
2022/01/26 08:56:30;;;;;;;14.07;12.87;;;;;;;22.38;19.65;95659.56;7271194;19;137811;-56
2022/01/26 08:58:55;;;;;;;13.97;12.87;;;;;;;22.36;19.90;95660.91;7276244;19;138360;-54
2022/01/26 09:01:21;;;;;;;12.67;11.60;;;;;;;22.35;20.13;95660.13;7286379;19;137600;-57
2022/01/26 09:03:47;;;;;;;11.87;10.77;;;;;;;22.37;20.19;95665.97;7288872;19;137762;-54
2022/01/26 09:06:12;;;;;;;13.37;12.17;;;;;;;22.36;19.58;95664.38;7276508;19;137576;-54
2022/01/26 09:08:41;;;;;;;13.00;11.87;;;;;;;22.35;20.05;95670.78;7282754;19;138509;-53
2022/01/26 09:11:08;;;;;;;12.50;11.40;;;;;;;22.35;19.99;95670.78;7291494;19;138122;-56
2022/01/26 09:13:35;;;;;;;12.10;11.10;;;;;;;22.36;19.83;95680.34;7291784;19;137576;-56
2022/01/26 09:16:04;;;;;;;12.50;11.50;;;;;;;22.29;19.64;95666.56;7290428;19;137303;-56
2022/01/26 09:21:05;;;;;;;11.30;10.40;;;;;;;22.35;20.01;95676.09;7292760;19;137500;-56
2022/01/26 09:23:31;;;;;;;11.43;10.43;;;;;;;22.35;20.19;95678.75;7291029;19;137210;-57
2022/01/26 09:25:56;;;;;;;12.13;11.10;;;;;;;22.37;19.47;95670.50;7289331;19;137453;-56
2022/01/26 09:28:22;;;;;;;11.60;10.50;;;;;;;22.36;19.43;95674.22;7269680;19;137978;-57
2022/01/26 09:30:48;;;;;;;11.30;10.30;;;;;;;22.36;19.70;95669.69;7290593;19;137447;-56
2022/01/26 09:33:14;;;;;;;10.80;9.90;;;;;;;22.36;19.70;95661.72;7289988;19;137560;-57
2022/01/26 09:35:39;;;;;;;10.17;9.37;;;;;;;22.38;19.36;95666.75;7291457;19;137955;-57
2022/01/26 09:38:05;;;;;;;11.13;10.13;;;;;;;22.34;19.62;95655.88;7284622;19;138398;-57
2022/01/26 09:40:30;;;;;;;10.50;9.60;;;;;;;22.13;19.48;95620.72;7273646;19;138381;-57
2022/01/26 09:42:56;;;;;;;10.70;9.80;;;;;;;22.35;19.82;95649.47;7291148;19;138436;-57
2022/01/26 09:45:22;;;;;;;10.27;9.37;;;;;;;22.33;19.54;95646.28;7289214;19;137547;-55
2022/01/26 09:47:47;;;;;;;10.17;9.27;;;;;;;22.37;19.94;95649.97;7283310;19;137049;-57
2022/01/26 09:50:13;;;;;;;10.53;9.63;;;;;;;22.37;19.66;95642.00;7274901;19;137214;-57
2022/01/26 09:52:45;;;;;;;11.57;10.57;;;;;;;22.38;19.42;95637.47;7288300;19;137884;-55
2022/01/26 09:55:11;;;;;;;10.03;9.23;;;;;;;22.30;20.04;95625.56;7288200;19;137590;-55
2022/01/26 09:57:38;;;;;;;10.47;9.57;;;;;;;22.40;19.39;95636.09;7284356;19;137421;-55
2022/01/26 10:00:07;;;;;;;9.63;8.83;;;;;;;22.40;19.64;95632.63;7286220;19;138760;-57
2022/01/26 10:02:35;;;;;;;9.97;8.87;;;;;;;22.38;19.96;95632.94;7275965;19;137584;-56
2022/01/26 10:05:07;;;;;;;9.70;8.90;;;;;;;22.41;19.66;95637.69;7289258;19;136979;-57
2022/01/26 10:15:49;;;;;;;9.70;8.90;;;;;;;22.42;19.71;95630.47;7287847;19;138442;-58
2022/01/26 10:18:20;;;;;;;9.60;8.80;;;;;;;22.42;19.94;95633.16;7281969;19;137686;-55
2022/01/26 10:20:56;;;;;;;9.20;8.50;;;;;;;22.38;19.93;95619.63;7286731;19;137021;-55
2022/01/26 10:23:27;;;;;;;9.47;8.67;;;;;;;22.39;19.32;95615.09;7274736;19;140129;-58
2022/01/26 10:26:14;;;;;;;9.17;8.37;;;;;;;22.33;19.67;95603.69;7287646;19;138270;-55
2022/01/26 10:29:00;;;;;;;9.53;8.83;;;;;;;22.43;19.88;95619.53;7283764;19;137709;-55
2022/01/26 10:31:32;;;;;;;8.17;7.57;;;;;;;22.44;19.75;95610.47;7289072;19;138032;-57
2022/01/26 10:34:06;;;;;;;9.60;8.80;;;;;;;22.46;19.73;95610.19;7280250;19;138000;-57
2022/01/26 10:36:48;;;;;;;9.27;8.47;;;;;;;22.44;19.74;95607.81;7288230;19;137588;-56
2022/01/26 10:39:19;;;;;;;8.90;8.20;;;;;;;22.44;19.46;95604.34;7279756;19;138752;-57
2022/01/26 10:41:47;;;;;;;7.60;6.93;;;;;;;22.40;19.31;95603.34;7289541;19;137146;-57
2022/01/26 10:44:13;;;;;;;8.37;7.67;;;;;;;22.36;19.85;95592.50;7288776;19;138302;-57
2022/01/26 10:46:42;;;;;;;8.73;8.07;;;;;;;22.45;19.41;95616.59;7273315;19;137905;-56
2022/01/26 10:54:43;;;;;;;8.60;7.90;;;;;;;22.43;19.52;95618.75;7288474;19;137482;-57
2022/01/26 10:57:11;;;;;;;9.10;8.37;;;;;;;22.44;19.60;95620.34;7272407;19;137990;-54
2022/01/26 10:59:41;;;;;;;8.10;7.50;;;;;;;22.39;19.78;95615.88;7281664;19;137946;-56
2022/01/26 11:02:08;;;;;;;7.47;6.87;;;;;;;22.40;19.60;95603.34;7288088;19;138854;-57
2022/01/26 11:04:36;;;;;;;7.77;7.07;;;;;;;22.42;20.03;95612.63;7289506;19;137976;-55
2022/01/26 11:07:04;;;;;;;8.00;7.27;;;;;;;22.42;19.56;95611.84;7275275;19;137849;-55
2022/01/26 11:09:33;;;;;;;7.27;6.77;;;;;;;22.36;19.48;95603.16;7278619;19;138134;-53
2022/01/26 11:12:04;;;;;;;7.70;7.00;;;;;;;22.40;19.61;95612.13;7289207;19;137344;-55
2022/01/26 11:14:51;;;;;;;7.93;7.23;;;;;;;22.40;19.58;95617.47;7287962;19;137724;-57
2022/01/26 11:17:29;;;;;;;7.43;6.83;;;;;;;22.37;20.05;95604.72;7283670;19;137923;-54
2022/01/26 11:19:58;;;;;;;8.40;7.70;;;;;;;22.39;19.60;95601.78;7271982;19;140605;-55
2022/01/26 11:22:30;;;;;;;8.07;7.37;;;;;;;22.34;19.40;95594.66;7288286;19;137773;-57
2022/01/26 11:25:08;;;;;;;7.20;6.60;;;;;;;22.39;19.50;95601.78;7286495;19;137613;-58
2022/01/26 11:27:36;;;;;;;7.70;7.10;;;;;;;22.39;19.60;95602.56;7282164;19;137687;-55
2022/01/26 11:30:26;;;;;;;7.50;6.80;;;;;;;22.39;20.09;95604.44;7269887;19;139723;-56
2022/01/26 11:33:27;;;;;;;7.00;6.40;;;;;;;22.39;19.72;95602.56;7287884;19;138019;-56
2022/01/26 11:35:55;;;;;;;7.10;6.50;;;;;;;22.39;19.85;95601.78;7283728;19;138502;-56
2022/01/26 11:46:33;;;;;;;6.70;6.20;;;;;;;22.40;19.76;95587.38;7284386;19;137510;-55
2022/01/26 11:49:08;;;;;;;7.10;6.60;;;;;;;22.41;20.00;95586.31;7277421;19;138100;-55
2022/01/26 11:51:46;;;;;;;7.33;6.73;;;;;;;22.42;19.81;95593.22;7273044;19;137525;-56
2022/01/26 11:54:26;;;;;;;7.00;6.40;;;;;;;22.41;20.23;95588.97;7287063;19;138161;-56
2022/01/26 11:57:12;;;;;;;7.00;6.50;;;;;;;22.39;20.21;95577.81;7285799;19;137622;-56
2022/01/26 11:59:45;;;;;;;7.03;6.50;;;;;;;22.35;19.70;95576.81;7281157;19;138424;-56
2022/01/26 12:02:34;;;;;;;7.07;6.50;;;;;;;22.41;20.26;95584.44;7272953;19;136980;-56
2022/01/26 12:05:05;;;;;;;7.03;6.47;;;;;;;22.40;20.32;95579.41;7285945;19;138110;-55
2022/01/26 12:07:31;;;;;;;6.60;6.10;;;;;;;22.38;20.21;95573.56;7279969;19;137254;-57
2022/01/26 12:09:57;;;;;;;6.93;6.40;;;;;;;22.40;20.21;95576.72;7282599;19;137526;-57
2022/01/26 12:12:24;;;;;;;7.17;6.67;;;;;;;22.38;19.78;95574.34;7286585;19;136986;-56
2022/01/26 12:15:10;;;;;;;7.60;7.00;;;;;;;22.37;19.94;95578.09;7272326;19;137618;-56
2022/01/26 12:17:46;;;;;;;7.17;6.57;;;;;;;22.42;20.21;95579.91;7280646;19;139264;-55
2022/01/26 12:45:15;;;;;;;6.70;6.20;;;;;;;22.41;19.91;95565.78;7285085;19;136989;-55
2022/01/26 12:47:42;;;;;;;6.87;6.33;;;;;;;22.39;20.26;95570.63;7265063;19;138158;-55
2022/01/26 12:50:08;;;;;;;7.37;6.77;;;;;;;22.41;20.29;95560.47;7281681;19;137917;-56
2022/01/26 12:52:35;;;;;;;6.73;6.23;;;;;;;22.33;20.57;95552.31;7282478;19;137867;-57
2022/01/26 12:55:00;;;;;;;7.10;6.50;;;;;;;22.40;20.55;95571.41;7284040;19;137312;-57
2022/01/26 12:57:26;;;;;;;7.20;6.70;;;;;;;22.35;20.61;95553.63;7263566;19;137783;-55
2022/01/26 13:00:04;;;;;;;6.93;6.43;;;;;;;22.41;20.45;95559.69;7280356;19;138639;-55
2022/01/26 13:02:29;;;;;;;7.20;6.60;;;;;;;22.38;20.10;95554.94;7285104;19;137680;-55
2022/01/26 13:05:02;;;;;;;7.30;6.70;;;;;;;22.38;20.45;95563.72;7284531;19;137286;-54
2022/01/26 13:07:27;;;;;;;6.73;6.23;;;;;;;22.35;20.02;95556.31;7274842;19;137595;-58
2022/01/26 13:09:53;;;;;;;6.20;5.70;;;;;;;22.37;20.16;95556.81;7268850;19;138561;-58
2022/01/26 13:12:29;;;;;;;7.37;6.77;;;;;;;22.38;20.61;95555.72;7284677;19;136918;-55
2022/01/26 13:15:19;;;;;;;7.00;6.50;;;;;;;22.39;20.26;95554.63;7284062;19;137474;-57
2022/01/26 13:17:56;;;;;;;6.63;6.13;;;;;;;22.38;20.72;95552.28;7278795;19;137974;-58
2022/01/26 13:21:31;;;;;;;6.80;6.30;;;;;;;22.37;20.35;95545.38;7267964;19;138156;-56
2022/01/26 13:23:39;;;;;;;7.00;6.50;;;;;;;22.39;20.09;95548.53;7283120;19;137622;-57
2022/01/26 13:26:23;;;;;;;7.47;6.87;;;;;;;22.39;20.13;95554.63;7282358;19;137714;-57
2022/01/26 13:29:10;;;;;;;7.40;6.80;;;;;;;22.38;19.99;95553.06;7277312;19;137988;-54
2022/01/26 13:32:11;;;;;;;6.83;6.33;;;;;;;22.36;20.72;95541.13;7269622;19;138382;-56
2022/01/26 13:37:23;;;;;;;6.23;5.83;;;;;;;22.34;20.71;95551.25;7282842;19;138947;-55
2022/01/26 13:40:43;;;;;;;6.20;5.70;;;;;;;22.34;20.37;95545.91;7278833;19;138055;-55
2022/01/26 13:53:08;;;;;;;6.37;5.87;;;;;;;22.37;20.09;95556.81;7277495;19;138525;-55
2022/01/26 13:58:22;;;;;;;6.90;6.40;;;;;;;22.30;20.14;95548.38;7285163;19;138939;-57
2022/01/26 14:00:57;;;;;;;6.50;6.00;;;;;;;22.35;19.95;95556.31;7286411;19;137518;-57
2022/01/26 14:03:25;;;;;;;6.63;6.13;;;;;;;22.37;20.43;95558.69;7276401;19;137358;-56